sensor_id;sensor_type;location;lat;lon;timestamp;P1;durP1;ratioP1;P2;durP2;ratioP2
5343;SDS011;2694;48.954;8.928;2023-02-28T00:01:24;4.07;;;2.70;;
5343;SDS011;2694;48.954;8.928;2023-02-28T00:03:52;6.95;;;2.85;;
5343;SDS011;2694;48.954;8.928;2023-02-28T00:06:20;4.00;;;2.30;;
5343;SDS011;2694;48.954;8.928;2023-02-28T00:08:47;4.45;;;2.17;;
5343;SDS011;2694;48.954;8.928;2023-02-28T00:11:14;4.50;;;2.40;;
5343;SDS011;2694;48.954;8.928;2023-02-28T00:13:44;5.17;;;2.47;;
5343;SDS011;2694;48.954;8.928;2023-02-28T00:16:13;4.60;;;2.50;;
5343;SDS011;2694;48.954;8.928;2023-02-28T00:18:41;3.40;;;2.40;;
5343;SDS011;2694;48.954;8.928;2023-02-28T00:21:08;4.28;;;2.45;;
5343;SDS011;2694;48.954;8.928;2023-02-28T00:23:35;4.63;;;2.72;;
5343;SDS011;2694;48.954;8.928;2023-02-28T00:26:03;3.33;;;2.60;;
5343;SDS011;2694;48.954;8.928;2023-02-28T00:28:30;4.45;;;2.75;;
5343;SDS011;2694;48.954;8.928;2023-02-28T00:30:58;5.03;;;3.10;;
5343;SDS011;2694;48.954;8.928;2023-02-28T00:33:25;3.90;;;2.72;;
5343;SDS011;2694;48.954;8.928;2023-02-28T00:36:00;4.32;;;2.22;;
5343;SDS011;2694;48.954;8.928;2023-02-28T00:38:29;2.17;;;1.98;;
5343;SDS011;2694;48.954;8.928;2023-02-28T00:40:56;3.63;;;2.43;;
5343;SDS011;2694;48.954;8.928;2023-02-28T00:43:23;5.40;;;2.70;;
5343;SDS011;2694;48.954;8.928;2023-02-28T00:45:50;2.97;;;2.38;;
5343;SDS011;2694;48.954;8.928;2023-02-28T00:48:18;3.92;;;2.40;;
5343;SDS011;2694;48.954;8.928;2023-02-28T00:50:48;7.72;;;2.75;;
5343;SDS011;2694;48.954;8.928;2023-02-28T00:53:15;6.68;;;2.60;;
5343;SDS011;2694;48.954;8.928;2023-02-28T00:55:42;5.50;;;2.00;;
5343;SDS011;2694;48.954;8.928;2023-02-28T00:58:09;3.42;;;2.00;;
5343;SDS011;2694;48.954;8.928;2023-02-28T01:00:36;4.70;;;2.45;;
5343;SDS011;2694;48.954;8.928;2023-02-28T01:03:03;3.28;;;2.17;;
5343;SDS011;2694;48.954;8.928;2023-02-28T01:05:31;7.35;;;2.47;;
5343;SDS011;2694;48.954;8.928;2023-02-28T01:07:58;4.43;;;2.90;;
5343;SDS011;2694;48.954;8.928;2023-02-28T01:10:25;4.50;;;2.30;;
5343;SDS011;2694;48.954;8.928;2023-02-28T01:12:56;2.95;;;2.05;;
5343;SDS011;2694;48.954;8.928;2023-02-28T01:15:23;4.60;;;2.55;;
5343;SDS011;2694;48.954;8.928;2023-02-28T01:17:50;5.93;;;2.30;;
5343;SDS011;2694;48.954;8.928;2023-02-28T01:20:17;4.43;;;2.40;;
5343;SDS011;2694;48.954;8.928;2023-02-28T01:22:45;4.38;;;2.95;;
5343;SDS011;2694;48.954;8.928;2023-02-28T01:25:12;4.32;;;2.55;;
5343;SDS011;2694;48.954;8.928;2023-02-28T01:27:39;3.58;;;2.33;;
5343;SDS011;2694;48.954;8.928;2023-02-28T01:30:07;4.30;;;2.30;;
5343;SDS011;2694;48.954;8.928;2023-02-28T01:32:35;4.82;;;2.50;;
5343;SDS011;2694;48.954;8.928;2023-02-28T01:35:02;4.35;;;2.00;;
5343;SDS011;2694;48.954;8.928;2023-02-28T01:37:29;3.60;;;2.33;;
5343;SDS011;2694;48.954;8.928;2023-02-28T01:39:57;3.97;;;2.20;;
5343;SDS011;2694;48.954;8.928;2023-02-28T01:42:24;6.25;;;2.50;;
5343;SDS011;2694;48.954;8.928;2023-02-28T01:45:01;4.90;;;2.60;;
5343;SDS011;2694;48.954;8.928;2023-02-28T01:47:36;4.22;;;2.28;;
5343;SDS011;2694;48.954;8.928;2023-02-28T01:50:07;5.10;;;2.50;;
5343;SDS011;2694;48.954;8.928;2023-02-28T01:52:38;5.05;;;2.10;;
5343;SDS011;2694;48.954;8.928;2023-02-28T01:55:08;5.55;;;3.17;;
5343;SDS011;2694;48.954;8.928;2023-02-28T01:57:39;5.97;;;2.10;;
5343;SDS011;2694;48.954;8.928;2023-02-28T02:00:10;3.67;;;2.50;;
5343;SDS011;2694;48.954;8.928;2023-02-28T02:02:40;3.60;;;2.50;;
5343;SDS011;2694;48.954;8.928;2023-02-28T02:05:10;4.37;;;2.80;;
5343;SDS011;2694;48.954;8.928;2023-02-28T02:07:40;3.53;;;2.50;;
5343;SDS011;2694;48.954;8.928;2023-02-28T02:10:13;4.70;;;2.20;;
5343;SDS011;2694;48.954;8.928;2023-02-28T02:12:46;6.95;;;2.97;;
5343;SDS011;2694;48.954;8.928;2023-02-28T02:15:27;6.72;;;3.00;;
5343;SDS011;2694;48.954;8.928;2023-02-28T02:17:59;3.22;;;2.72;;
5343;SDS011;2694;48.954;8.928;2023-02-28T02:26:44;4.38;;;2.70;;
5343;SDS011;2694;48.954;8.928;2023-02-28T02:35:47;5.93;;;2.93;;
5343;SDS011;2694;48.954;8.928;2023-02-28T02:38:18;4.55;;;2.63;;
5343;SDS011;2694;48.954;8.928;2023-02-28T02:40:56;5.72;;;3.10;;
5343;SDS011;2694;48.954;8.928;2023-02-28T02:43:30;5.00;;;2.77;;
5343;SDS011;2694;48.954;8.928;2023-02-28T02:46:02;5.95;;;2.80;;
5343;SDS011;2694;48.954;8.928;2023-02-28T02:48:34;5.40;;;2.70;;
5343;SDS011;2694;48.954;8.928;2023-02-28T02:51:05;4.28;;;3.00;;
5343;SDS011;2694;48.954;8.928;2023-02-28T02:53:37;5.10;;;3.13;;
5343;SDS011;2694;48.954;8.928;2023-02-28T02:56:09;4.93;;;3.20;;
5343;SDS011;2694;48.954;8.928;2023-02-28T02:58:37;4.90;;;3.00;;
5343;SDS011;2694;48.954;8.928;2023-02-28T03:01:08;5.80;;;2.83;;
5343;SDS011;2694;48.954;8.928;2023-02-28T03:03:40;4.35;;;2.70;;
5343;SDS011;2694;48.954;8.928;2023-02-28T03:06:09;5.87;;;3.10;;
5343;SDS011;2694;48.954;8.928;2023-02-28T03:08:37;5.65;;;3.00;;
5343;SDS011;2694;48.954;8.928;2023-02-28T03:11:05;6.20;;;2.97;;
5343;SDS011;2694;48.954;8.928;2023-02-28T03:13:42;6.85;;;3.42;;
5343;SDS011;2694;48.954;8.928;2023-02-28T03:16:32;4.82;;;2.92;;
5343;SDS011;2694;48.954;8.928;2023-02-28T03:19:03;5.47;;;3.40;;
5343;SDS011;2694;48.954;8.928;2023-02-28T03:21:46;4.85;;;3.20;;
5343;SDS011;2694;48.954;8.928;2023-02-28T03:24:22;6.40;;;3.08;;
5343;SDS011;2694;48.954;8.928;2023-02-28T03:26:57;4.68;;;3.30;;
5343;SDS011;2694;48.954;8.928;2023-02-28T03:29:31;5.95;;;2.88;;
5343;SDS011;2694;48.954;8.928;2023-02-28T03:32:03;7.50;;;3.78;;
5343;SDS011;2694;48.954;8.928;2023-02-28T03:34:39;6.10;;;3.42;;
5343;SDS011;2694;48.954;8.928;2023-02-28T03:37:16;6.15;;;3.13;;
5343;SDS011;2694;48.954;8.928;2023-02-28T03:39:46;8.05;;;3.70;;
5343;SDS011;2694;48.954;8.928;2023-02-28T03:42:20;4.40;;;2.90;;
5343;SDS011;2694;48.954;8.928;2023-02-28T03:44:51;5.63;;;3.38;;
5343;SDS011;2694;48.954;8.928;2023-02-28T03:47:23;6.82;;;3.45;;
5343;SDS011;2694;48.954;8.928;2023-02-28T03:49:53;5.22;;;3.75;;
5343;SDS011;2694;48.954;8.928;2023-02-28T03:52:26;5.22;;;3.42;;
5343;SDS011;2694;48.954;8.928;2023-02-28T03:54:59;5.00;;;3.10;;
5343;SDS011;2694;48.954;8.928;2023-02-28T03:57:33;4.75;;;3.03;;
5343;SDS011;2694;48.954;8.928;2023-02-28T04:00:05;6.63;;;3.03;;
5343;SDS011;2694;48.954;8.928;2023-02-28T04:02:36;7.35;;;4.07;;
5343;SDS011;2694;48.954;8.928;2023-02-28T04:05:03;6.30;;;3.40;;
5343;SDS011;2694;48.954;8.928;2023-02-28T04:07:31;7.35;;;3.90;;
5343;SDS011;2694;48.954;8.928;2023-02-28T04:09:59;6.20;;;3.30;;
5343;SDS011;2694;48.954;8.928;2023-02-28T04:12:25;7.10;;;3.55;;
5343;SDS011;2694;48.954;8.928;2023-02-28T04:14:52;5.65;;;3.72;;
5343;SDS011;2694;48.954;8.928;2023-02-28T04:17:19;6.18;;;3.75;;
5343;SDS011;2694;48.954;8.928;2023-02-28T04:19:46;5.15;;;3.13;;
5343;SDS011;2694;48.954;8.928;2023-02-28T04:22:13;5.70;;;3.55;;
5343;SDS011;2694;48.954;8.928;2023-02-28T04:24:43;5.38;;;3.30;;
5343;SDS011;2694;48.954;8.928;2023-02-28T04:27:11;8.07;;;3.40;;
5343;SDS011;2694;48.954;8.928;2023-02-28T04:29:37;5.43;;;3.30;;
5343;SDS011;2694;48.954;8.928;2023-02-28T04:32:04;6.80;;;4.05;;
5343;SDS011;2694;48.954;8.928;2023-02-28T04:34:32;8.07;;;3.97;;
5343;SDS011;2694;48.954;8.928;2023-02-28T04:36:59;5.97;;;3.60;;
5343;SDS011;2694;48.954;8.928;2023-02-28T04:39:26;7.05;;;3.53;;
5343;SDS011;2694;48.954;8.928;2023-02-28T04:41:54;5.95;;;3.50;;
5343;SDS011;2694;48.954;8.928;2023-02-28T04:44:22;5.20;;;3.60;;
5343;SDS011;2694;48.954;8.928;2023-02-28T04:46:49;5.77;;;3.60;;
5343;SDS011;2694;48.954;8.928;2023-02-28T04:49:16;7.45;;;3.70;;
5343;SDS011;2694;48.954;8.928;2023-02-28T04:51:45;5.85;;;3.70;;
5343;SDS011;2694;48.954;8.928;2023-02-28T04:54:12;7.88;;;3.85;;
5343;SDS011;2694;48.954;8.928;2023-02-28T04:56:40;9.52;;;4.50;;
5343;SDS011;2694;48.954;8.928;2023-02-28T04:59:09;7.45;;;3.92;;
5343;SDS011;2694;48.954;8.928;2023-02-28T05:01:36;8.23;;;4.00;;
5343;SDS011;2694;48.954;8.928;2023-02-28T05:04:03;5.53;;;3.83;;
5343;SDS011;2694;48.954;8.928;2023-02-28T05:06:32;9.48;;;4.47;;
5343;SDS011;2694;48.954;8.928;2023-02-28T05:08:59;8.23;;;4.00;;
5343;SDS011;2694;48.954;8.928;2023-02-28T05:11:27;7.03;;;3.78;;
5343;SDS011;2694;48.954;8.928;2023-02-28T05:13:59;6.75;;;3.85;;
5343;SDS011;2694;48.954;8.928;2023-02-28T05:16:28;8.13;;;3.90;;
5343;SDS011;2694;48.954;8.928;2023-02-28T05:18:55;7.35;;;4.32;;
5343;SDS011;2694;48.954;8.928;2023-02-28T05:21:26;6.63;;;4.28;;
5343;SDS011;2694;48.954;8.928;2023-02-28T05:23:55;6.78;;;3.60;;
5343;SDS011;2694;48.954;8.928;2023-02-28T05:26:23;8.43;;;4.32;;
5343;SDS011;2694;48.954;8.928;2023-02-28T05:28:51;8.90;;;4.10;;
5343;SDS011;2694;48.954;8.928;2023-02-28T05:31:18;8.10;;;4.72;;
5343;SDS011;2694;48.954;8.928;2023-02-28T05:33:46;7.22;;;4.70;;
5343;SDS011;2694;48.954;8.928;2023-02-28T05:36:14;7.25;;;4.28;;
5343;SDS011;2694;48.954;8.928;2023-02-28T05:38:41;6.32;;;3.55;;
5343;SDS011;2694;48.954;8.928;2023-02-28T05:41:08;11.25;;;4.93;;
5343;SDS011;2694;48.954;8.928;2023-02-28T05:43:36;8.63;;;4.30;;
5343;SDS011;2694;48.954;8.928;2023-02-28T05:46:04;5.85;;;3.90;;
5343;SDS011;2694;48.954;8.928;2023-02-28T05:48:32;5.90;;;3.70;;
5343;SDS011;2694;48.954;8.928;2023-02-28T05:51:01;8.27;;;4.30;;
5343;SDS011;2694;48.954;8.928;2023-02-28T05:53:28;7.10;;;3.90;;
5343;SDS011;2694;48.954;8.928;2023-02-28T05:55:56;8.77;;;4.00;;
5343;SDS011;2694;48.954;8.928;2023-02-28T05:58:23;6.35;;;3.72;;
5343;SDS011;2694;48.954;8.928;2023-02-28T06:00:54;7.45;;;3.72;;
5343;SDS011;2694;48.954;8.928;2023-02-28T06:03:21;6.25;;;3.97;;
5343;SDS011;2694;48.954;8.928;2023-02-28T06:05:47;5.72;;;4.00;;
5343;SDS011;2694;48.954;8.928;2023-02-28T06:08:16;10.45;;;4.07;;
5343;SDS011;2694;48.954;8.928;2023-02-28T06:10:43;7.50;;;4.30;;
5343;SDS011;2694;48.954;8.928;2023-02-28T06:13:11;7.60;;;4.35;;
5343;SDS011;2694;48.954;8.928;2023-02-28T06:15:38;8.00;;;3.65;;
5343;SDS011;2694;48.954;8.928;2023-02-28T06:18:05;7.65;;;4.13;;
5343;SDS011;2694;48.954;8.928;2023-02-28T06:20:33;8.40;;;4.40;;
5343;SDS011;2694;48.954;8.928;2023-02-28T06:23:01;8.07;;;4.47;;
5343;SDS011;2694;48.954;8.928;2023-02-28T06:25:29;11.97;;;4.60;;
5343;SDS011;2694;48.954;8.928;2023-02-28T06:27:56;7.70;;;4.80;;
5343;SDS011;2694;48.954;8.928;2023-02-28T06:30:23;9.50;;;4.60;;
5343;SDS011;2694;48.954;8.928;2023-02-28T06:32:52;8.32;;;4.40;;
5343;SDS011;2694;48.954;8.928;2023-02-28T06:35:19;7.75;;;4.60;;
5343;SDS011;2694;48.954;8.928;2023-02-28T06:37:46;8.45;;;4.22;;
5343;SDS011;2694;48.954;8.928;2023-02-28T06:40:13;7.95;;;4.60;;
5343;SDS011;2694;48.954;8.928;2023-02-28T06:42:42;5.80;;;4.15;;
5343;SDS011;2694;48.954;8.928;2023-02-28T06:45:10;10.13;;;4.23;;
5343;SDS011;2694;48.954;8.928;2023-02-28T06:47:37;8.63;;;4.50;;
5343;SDS011;2694;48.954;8.928;2023-02-28T06:50:06;8.48;;;4.80;;
5343;SDS011;2694;48.954;8.928;2023-02-28T06:52:35;7.90;;;4.10;;
5343;SDS011;2694;48.954;8.928;2023-02-28T06:55:02;6.72;;;4.13;;
5343;SDS011;2694;48.954;8.928;2023-02-28T06:57:30;8.60;;;4.68;;
5343;SDS011;2694;48.954;8.928;2023-02-28T07:00:00;10.23;;;4.05;;
5343;SDS011;2694;48.954;8.928;2023-02-28T07:02:30;11.30;;;4.85;;
5343;SDS011;2694;48.954;8.928;2023-02-28T07:04:57;8.70;;;4.90;;
5343;SDS011;2694;48.954;8.928;2023-02-28T07:07:24;8.45;;;4.78;;
5343;SDS011;2694;48.954;8.928;2023-02-28T07:09:51;8.30;;;4.40;;
5343;SDS011;2694;48.954;8.928;2023-02-28T07:12:18;9.52;;;4.47;;
5343;SDS011;2694;48.954;8.928;2023-02-28T07:14:45;8.07;;;4.60;;
5343;SDS011;2694;48.954;8.928;2023-02-28T07:17:13;8.63;;;4.60;;
5343;SDS011;2694;48.954;8.928;2023-02-28T07:19:40;8.57;;;4.70;;
5343;SDS011;2694;48.954;8.928;2023-02-28T07:22:07;8.43;;;4.40;;
5343;SDS011;2694;48.954;8.928;2023-02-28T07:24:33;7.10;;;4.38;;
5343;SDS011;2694;48.954;8.928;2023-02-28T07:27:00;6.90;;;4.15;;
5343;SDS011;2694;48.954;8.928;2023-02-28T07:29:28;9.57;;;4.45;;
5343;SDS011;2694;48.954;8.928;2023-02-28T07:31:55;5.43;;;4.13;;
5343;SDS011;2694;48.954;8.928;2023-02-28T07:34:23;7.28;;;4.80;;
5343;SDS011;2694;48.954;8.928;2023-02-28T07:36:52;10.63;;;4.80;;
5343;SDS011;2694;48.954;8.928;2023-02-28T07:39:19;7.80;;;4.95;;
5343;SDS011;2694;48.954;8.928;2023-02-28T07:41:46;9.75;;;4.65;;
5343;SDS011;2694;48.954;8.928;2023-02-28T07:44:13;10.02;;;5.35;;
5343;SDS011;2694;48.954;8.928;2023-02-28T07:46:40;9.45;;;5.13;;
5343;SDS011;2694;48.954;8.928;2023-02-28T07:49:07;7.00;;;4.40;;
5343;SDS011;2694;48.954;8.928;2023-02-28T07:51:35;10.32;;;5.40;;
5343;SDS011;2694;48.954;8.928;2023-02-28T07:54:02;10.20;;;5.47;;
5343;SDS011;2694;48.954;8.928;2023-02-28T07:56:29;7.90;;;4.70;;
5343;SDS011;2694;48.954;8.928;2023-02-28T07:58:56;10.40;;;5.50;;
5343;SDS011;2694;48.954;8.928;2023-02-28T08:01:23;9.30;;;4.93;;
5343;SDS011;2694;48.954;8.928;2023-02-28T08:03:50;13.77;;;5.88;;
5343;SDS011;2694;48.954;8.928;2023-02-28T08:06:18;9.90;;;5.10;;
5343;SDS011;2694;48.954;8.928;2023-02-28T08:08:48;10.65;;;5.90;;
5343;SDS011;2694;48.954;8.928;2023-02-28T08:11:16;9.63;;;5.38;;
5343;SDS011;2694;48.954;8.928;2023-02-28T08:13:43;12.43;;;5.35;;
5343;SDS011;2694;48.954;8.928;2023-02-28T08:16:11;9.00;;;5.50;;
5343;SDS011;2694;48.954;8.928;2023-02-28T08:18:40;12.27;;;5.40;;
5343;SDS011;2694;48.954;8.928;2023-02-28T08:21:07;9.18;;;5.50;;
5343;SDS011;2694;48.954;8.928;2023-02-28T08:23:34;10.23;;;5.60;;
5343;SDS011;2694;48.954;8.928;2023-02-28T08:26:03;10.80;;;5.28;;
5343;SDS011;2694;48.954;8.928;2023-02-28T08:28:30;12.55;;;6.30;;
5343;SDS011;2694;48.954;8.928;2023-02-28T08:30:57;12.20;;;6.20;;
5343;SDS011;2694;48.954;8.928;2023-02-28T08:33:25;11.50;;;5.82;;
5343;SDS011;2694;48.954;8.928;2023-02-28T08:35:53;10.98;;;6.00;;
5343;SDS011;2694;48.954;8.928;2023-02-28T08:38:20;12.15;;;5.82;;
5343;SDS011;2694;48.954;8.928;2023-02-28T08:40:47;10.85;;;5.70;;
5343;SDS011;2694;48.954;8.928;2023-02-28T08:43:16;18.33;;;9.60;;
5343;SDS011;2694;48.954;8.928;2023-02-28T08:45:42;9.82;;;6.10;;
5343;SDS011;2694;48.954;8.928;2023-02-28T08:48:09;10.65;;;5.75;;
5343;SDS011;2694;48.954;8.928;2023-02-28T08:50:36;11.10;;;5.82;;
5343;SDS011;2694;48.954;8.928;2023-02-28T08:53:03;10.50;;;6.30;;
5343;SDS011;2694;48.954;8.928;2023-02-28T08:55:30;10.52;;;6.05;;
5343;SDS011;2694;48.954;8.928;2023-02-28T08:57:57;11.00;;;6.20;;
5343;SDS011;2694;48.954;8.928;2023-02-28T09:00:25;10.20;;;6.00;;
5343;SDS011;2694;48.954;8.928;2023-02-28T09:02:52;11.90;;;6.18;;
5343;SDS011;2694;48.954;8.928;2023-02-28T09:05:19;9.43;;;6.00;;
5343;SDS011;2694;48.954;8.928;2023-02-28T09:07:46;9.10;;;5.70;;
5343;SDS011;2694;48.954;8.928;2023-02-28T09:10:13;13.15;;;6.15;;
5343;SDS011;2694;48.954;8.928;2023-02-28T09:12:40;10.55;;;5.90;;
5343;SDS011;2694;48.954;8.928;2023-02-28T09:15:07;10.43;;;6.32;;
5343;SDS011;2694;48.954;8.928;2023-02-28T09:17:36;14.27;;;5.90;;
5343;SDS011;2694;48.954;8.928;2023-02-28T09:20:03;10.63;;;6.20;;
5343;SDS011;2694;48.954;8.928;2023-02-28T09:22:31;12.35;;;6.30;;
5343;SDS011;2694;48.954;8.928;2023-02-28T09:24:58;9.38;;;5.82;;
5343;SDS011;2694;48.954;8.928;2023-02-28T09:27:25;12.68;;;6.20;;
5343;SDS011;2694;48.954;8.928;2023-02-28T09:29:51;10.98;;;5.80;;
5343;SDS011;2694;48.954;8.928;2023-02-28T09:32:18;10.13;;;6.45;;
5343;SDS011;2694;48.954;8.928;2023-02-28T09:34:46;12.00;;;6.22;;
5343;SDS011;2694;48.954;8.928;2023-02-28T09:37:13;10.70;;;6.07;;
5343;SDS011;2694;48.954;8.928;2023-02-28T09:39:40;10.57;;;6.70;;
5343;SDS011;2694;48.954;8.928;2023-02-28T09:42:11;11.37;;;6.17;;
5343;SDS011;2694;48.954;8.928;2023-02-28T09:44:47;10.35;;;5.95;;
5343;SDS011;2694;48.954;8.928;2023-02-28T09:47:17;12.75;;;7.22;;
5343;SDS011;2694;48.954;8.928;2023-02-28T09:49:51;9.83;;;6.43;;
5343;SDS011;2694;48.954;8.928;2023-02-28T09:52:19;11.93;;;6.80;;
5343;SDS011;2694;48.954;8.928;2023-02-28T09:54:48;11.27;;;6.20;;
5343;SDS011;2694;48.954;8.928;2023-02-28T09:57:16;11.13;;;7.03;;
5343;SDS011;2694;48.954;8.928;2023-02-28T09:59:51;9.77;;;6.00;;
5343;SDS011;2694;48.954;8.928;2023-02-28T10:05:21;11.70;;;6.60;;
5343;SDS011;2694;48.954;8.928;2023-02-28T10:07:59;11.83;;;6.90;;
5343;SDS011;2694;48.954;8.928;2023-02-28T10:10:32;9.93;;;5.60;;
5343;SDS011;2694;48.954;8.928;2023-02-28T10:13:04;13.27;;;6.30;;
5343;SDS011;2694;48.954;8.928;2023-02-28T10:15:38;10.00;;;5.77;;
5343;SDS011;2694;48.954;8.928;2023-02-28T10:18:06;11.45;;;6.50;;
5343;SDS011;2694;48.954;8.928;2023-02-28T10:20:40;11.18;;;6.10;;
5343;SDS011;2694;48.954;8.928;2023-02-28T10:23:10;13.68;;;6.40;;
5343;SDS011;2694;48.954;8.928;2023-02-28T10:25:43;11.60;;;6.80;;
5343;SDS011;2694;48.954;8.928;2023-02-28T10:28:14;11.70;;;6.68;;
5343;SDS011;2694;48.954;8.928;2023-02-28T10:30:43;12.57;;;6.28;;
5343;SDS011;2694;48.954;8.928;2023-02-28T10:33:15;9.75;;;5.60;;
5343;SDS011;2694;48.954;8.928;2023-02-28T10:35:48;11.35;;;6.40;;
5343;SDS011;2694;48.954;8.928;2023-02-28T10:38:17;10.90;;;6.20;;
5343;SDS011;2694;48.954;8.928;2023-02-28T10:40:45;11.85;;;6.57;;
5343;SDS011;2694;48.954;8.928;2023-02-28T10:43:19;10.65;;;6.20;;
5343;SDS011;2694;48.954;8.928;2023-02-28T10:45:55;14.95;;;6.20;;
5343;SDS011;2694;48.954;8.928;2023-02-28T10:48:29;10.88;;;6.15;;
5343;SDS011;2694;48.954;8.928;2023-02-28T10:51:02;12.98;;;6.00;;
5343;SDS011;2694;48.954;8.928;2023-02-28T10:53:32;11.93;;;5.80;;
5343;SDS011;2694;48.954;8.928;2023-02-28T10:56:02;11.80;;;6.50;;
5343;SDS011;2694;48.954;8.928;2023-02-28T10:58:32;9.63;;;5.70;;
5343;SDS011;2694;48.954;8.928;2023-02-28T11:01:13;13.52;;;6.80;;
5343;SDS011;2694;48.954;8.928;2023-02-28T11:03:42;11.85;;;6.00;;
5343;SDS011;2694;48.954;8.928;2023-02-28T11:06:14;11.32;;;7.05;;
5343;SDS011;2694;48.954;8.928;2023-02-28T11:08:43;12.60;;;6.25;;
5343;SDS011;2694;48.954;8.928;2023-02-28T11:11:16;10.85;;;6.07;;
5343;SDS011;2694;48.954;8.928;2023-02-28T11:13:44;9.15;;;5.60;;
5343;SDS011;2694;48.954;8.928;2023-02-28T11:16:12;10.68;;;6.50;;
5343;SDS011;2694;48.954;8.928;2023-02-28T11:18:42;8.80;;;5.80;;
5343;SDS011;2694;48.954;8.928;2023-02-28T11:21:19;12.30;;;6.95;;
5343;SDS011;2694;48.954;8.928;2023-02-28T11:23:49;14.47;;;7.30;;
5343;SDS011;2694;48.954;8.928;2023-02-28T11:26:37;16.05;;;6.70;;
5343;SDS011;2694;48.954;8.928;2023-02-28T11:29:10;13.10;;;5.90;;
5343;SDS011;2694;48.954;8.928;2023-02-28T11:31:44;10.80;;;6.20;;
5343;SDS011;2694;48.954;8.928;2023-02-28T11:34:46;13.87;;;7.20;;
5343;SDS011;2694;48.954;8.928;2023-02-28T11:37:15;10.93;;;6.40;;
5343;SDS011;2694;48.954;8.928;2023-02-28T11:39:44;12.45;;;6.53;;
5343;SDS011;2694;48.954;8.928;2023-02-28T11:42:24;11.05;;;6.35;;
5343;SDS011;2694;48.954;8.928;2023-02-28T11:45:08;10.07;;;5.60;;
5343;SDS011;2694;48.954;8.928;2023-02-28T11:47:44;10.93;;;5.75;;
5343;SDS011;2694;48.954;8.928;2023-02-28T11:50:20;12.57;;;5.80;;
5343;SDS011;2694;48.954;8.928;2023-02-28T11:53:02;9.65;;;5.88;;
5343;SDS011;2694;48.954;8.928;2023-02-28T11:55:36;12.43;;;6.00;;
5343;SDS011;2694;48.954;8.928;2023-02-28T11:58:23;9.85;;;5.80;;
5343;SDS011;2694;48.954;8.928;2023-02-28T12:01:03;12.73;;;5.78;;
5343;SDS011;2694;48.954;8.928;2023-02-28T12:03:56;8.40;;;5.82;;
5343;SDS011;2694;48.954;8.928;2023-02-28T12:06:28;12.10;;;5.72;;
5343;SDS011;2694;48.954;8.928;2023-02-28T12:09:03;11.23;;;5.97;;
5343;SDS011;2694;48.954;8.928;2023-02-28T12:11:41;14.35;;;6.20;;
5343;SDS011;2694;48.954;8.928;2023-02-28T12:17:20;10.68;;;6.13;;
5343;SDS011;2694;48.954;8.928;2023-02-28T12:19:57;11.90;;;6.80;;
5343;SDS011;2694;48.954;8.928;2023-02-28T12:22:32;11.55;;;6.18;;
5343;SDS011;2694;48.954;8.928;2023-02-28T12:25:20;12.77;;;7.20;;
5343;SDS011;2694;48.954;8.928;2023-02-28T12:27:56;10.65;;;5.95;;
5343;SDS011;2694;48.954;8.928;2023-02-28T12:30:24;11.23;;;5.93;;
5343;SDS011;2694;48.954;8.928;2023-02-28T12:32:54;12.77;;;6.18;;
5343;SDS011;2694;48.954;8.928;2023-02-28T12:35:25;14.77;;;6.50;;
5343;SDS011;2694;48.954;8.928;2023-02-28T12:37:59;11.38;;;6.32;;
5343;SDS011;2694;48.954;8.928;2023-02-28T12:40:34;9.73;;;6.38;;
5343;SDS011;2694;48.954;8.928;2023-02-28T12:43:11;13.10;;;6.47;;
5343;SDS011;2694;48.954;8.928;2023-02-28T12:45:40;12.50;;;6.72;;
5343;SDS011;2694;48.954;8.928;2023-02-28T12:48:14;12.70;;;6.15;;
5343;SDS011;2694;48.954;8.928;2023-02-28T12:50:45;9.75;;;6.32;;
5343;SDS011;2694;48.954;8.928;2023-02-28T12:53:14;13.80;;;6.93;;
5343;SDS011;2694;48.954;8.928;2023-02-28T12:55:52;24.00;;;10.53;;
5343;SDS011;2694;48.954;8.928;2023-02-28T12:58:29;11.63;;;6.35;;
5343;SDS011;2694;48.954;8.928;2023-02-28T13:01:05;11.85;;;6.20;;
5343;SDS011;2694;48.954;8.928;2023-02-28T13:03:58;11.77;;;6.68;;
5343;SDS011;2694;48.954;8.928;2023-02-28T13:06:57;13.07;;;6.60;;
5343;SDS011;2694;48.954;8.928;2023-02-28T13:09:34;11.43;;;6.50;;
5343;SDS011;2694;48.954;8.928;2023-02-28T13:12:04;12.73;;;6.82;;
5343;SDS011;2694;48.954;8.928;2023-02-28T13:14:39;9.25;;;6.20;;
5343;SDS011;2694;48.954;8.928;2023-02-28T13:17:10;11.98;;;6.72;;
5343;SDS011;2694;48.954;8.928;2023-02-28T13:19:40;10.52;;;5.88;;
5343;SDS011;2694;48.954;8.928;2023-02-28T13:22:19;10.13;;;6.60;;
5343;SDS011;2694;48.954;8.928;2023-02-28T13:25:04;12.00;;;6.28;;
5343;SDS011;2694;48.954;8.928;2023-02-28T13:31:32;10.10;;;6.20;;
5343;SDS011;2694;48.954;8.928;2023-02-28T13:34:15;11.15;;;6.95;;
5343;SDS011;2694;48.954;8.928;2023-02-28T13:36:42;13.13;;;6.80;;
5343;SDS011;2694;48.954;8.928;2023-02-28T13:42:23;11.75;;;6.63;;
5343;SDS011;2694;48.954;8.928;2023-02-28T13:45:19;16.75;;;7.05;;
5343;SDS011;2694;48.954;8.928;2023-02-28T13:47:52;11.30;;;7.30;;
5343;SDS011;2694;48.954;8.928;2023-02-28T13:50:29;15.55;;;6.90;;
5343;SDS011;2694;48.954;8.928;2023-02-28T13:56:10;13.95;;;7.50;;
5343;SDS011;2694;48.954;8.928;2023-02-28T13:58:50;11.98;;;6.65;;
5343;SDS011;2694;48.954;8.928;2023-02-28T14:04:21;20.17;;;6.93;;
5343;SDS011;2694;48.954;8.928;2023-02-28T14:07:20;20.05;;;7.03;;
5343;SDS011;2694;48.954;8.928;2023-02-28T14:09:52;11.40;;;6.80;;
5343;SDS011;2694;48.954;8.928;2023-02-28T14:15:26;9.73;;;6.05;;
5343;SDS011;2694;48.954;8.928;2023-02-28T14:18:02;9.93;;;6.60;;
5343;SDS011;2694;48.954;8.928;2023-02-28T14:20:33;10.93;;;6.90;;
5343;SDS011;2694;48.954;8.928;2023-02-28T14:23:02;10.73;;;6.50;;
5343;SDS011;2694;48.954;8.928;2023-02-28T14:25:37;10.20;;;6.90;;
5343;SDS011;2694;48.954;8.928;2023-02-28T14:28:13;12.90;;;6.80;;
5343;SDS011;2694;48.954;8.928;2023-02-28T14:30:56;11.88;;;6.78;;
5343;SDS011;2694;48.954;8.928;2023-02-28T14:33:31;13.70;;;7.55;;
5343;SDS011;2694;48.954;8.928;2023-02-28T14:36:12;12.00;;;7.20;;
5343;SDS011;2694;48.954;8.928;2023-02-28T14:38:45;14.65;;;7.25;;
5343;SDS011;2694;48.954;8.928;2023-02-28T14:41:16;13.80;;;7.05;;
5343;SDS011;2694;48.954;8.928;2023-02-28T14:43:48;11.73;;;7.25;;
5343;SDS011;2694;48.954;8.928;2023-02-28T14:46:20;16.05;;;7.60;;
5343;SDS011;2694;48.954;8.928;2023-02-28T14:48:49;13.38;;;7.13;;
5343;SDS011;2694;48.954;8.928;2023-02-28T14:51:21;11.52;;;7.43;;
5343;SDS011;2694;48.954;8.928;2023-02-28T14:53:50;14.20;;;7.50;;
5343;SDS011;2694;48.954;8.928;2023-02-28T14:56:20;12.70;;;7.40;;
5343;SDS011;2694;48.954;8.928;2023-02-28T14:58:53;12.33;;;7.73;;
5343;SDS011;2694;48.954;8.928;2023-02-28T15:01:21;10.75;;;7.72;;
5343;SDS011;2694;48.954;8.928;2023-02-28T15:03:56;12.70;;;7.43;;
5343;SDS011;2694;48.954;8.928;2023-02-28T15:06:27;13.50;;;7.28;;
5343;SDS011;2694;48.954;8.928;2023-02-28T15:11:45;12.73;;;7.40;;
5343;SDS011;2694;48.954;8.928;2023-02-28T15:14:17;13.00;;;7.57;;
5343;SDS011;2694;48.954;8.928;2023-02-28T15:16:46;11.50;;;7.47;;
5343;SDS011;2694;48.954;8.928;2023-02-28T15:19:19;12.43;;;7.60;;
5343;SDS011;2694;48.954;8.928;2023-02-28T15:21:51;13.68;;;7.10;;
5343;SDS011;2694;48.954;8.928;2023-02-28T15:24:26;13.57;;;7.72;;
5343;SDS011;2694;48.954;8.928;2023-02-28T15:26:58;13.90;;;7.07;;
5343;SDS011;2694;48.954;8.928;2023-02-28T15:29:29;10.82;;;7.38;;
5343;SDS011;2694;48.954;8.928;2023-02-28T15:32:00;14.73;;;6.72;;
5343;SDS011;2694;48.954;8.928;2023-02-28T15:34:33;12.70;;;6.78;;
5343;SDS011;2694;48.954;8.928;2023-02-28T15:39:57;14.60;;;8.13;;
5343;SDS011;2694;48.954;8.928;2023-02-28T15:42:31;12.23;;;7.57;;
5343;SDS011;2694;48.954;8.928;2023-02-28T15:44:58;11.05;;;6.80;;
5343;SDS011;2694;48.954;8.928;2023-02-28T15:47:26;11.38;;;6.93;;
5343;SDS011;2694;48.954;8.928;2023-02-28T15:49:54;13.38;;;6.93;;
5343;SDS011;2694;48.954;8.928;2023-02-28T15:52:26;11.40;;;7.60;;
5343;SDS011;2694;48.954;8.928;2023-02-28T15:54:59;13.07;;;7.90;;
5343;SDS011;2694;48.954;8.928;2023-02-28T15:57:35;12.07;;;7.47;;
5343;SDS011;2694;48.954;8.928;2023-02-28T16:00:03;12.02;;;7.68;;
5343;SDS011;2694;48.954;8.928;2023-02-28T16:02:31;14.55;;;7.60;;
5343;SDS011;2694;48.954;8.928;2023-02-28T16:05:01;12.57;;;7.45;;
5343;SDS011;2694;48.954;8.928;2023-02-28T16:07:44;14.90;;;8.35;;
5343;SDS011;2694;48.954;8.928;2023-02-28T16:10:13;16.23;;;7.97;;
5343;SDS011;2694;48.954;8.928;2023-02-28T16:12:40;14.63;;;8.10;;